createdAt,value
2023-05-10T00:01:21.502Z,100857.47
2023-05-10T00:04:05.267Z,100845.75
2023-05-10T00:06:48.812Z,100844.00
2023-05-10T00:09:32.319Z,100851.75
2023-05-10T00:12:15.886Z,100844.88
2023-05-10T00:14:59.515Z,100841.91
2023-05-10T00:17:43.097Z,100843.97
2023-05-10T00:20:26.797Z,100844.78
2023-05-10T00:23:10.526Z,100847.28
2023-05-10T00:25:54.228Z,100834.63
2023-05-10T00:28:37.766Z,100835.19
2023-05-10T00:31:21.572Z,100829.03
2023-05-10T00:34:05.061Z,100825.50
2023-05-10T00:36:48.656Z,100828.44
2023-05-10T00:39:32.363Z,100819.44
2023-05-10T00:42:15.885Z,100822.06
2023-05-10T00:44:59.985Z,100810.97
2023-05-10T00:47:43.778Z,100813.63
2023-05-10T00:50:27.543Z,100812.94
2023-05-10T00:53:11.477Z,100808.81
2023-05-10T00:55:55.035Z,100800.50
2023-05-10T00:58:38.625Z,100795.03
2023-05-10T01:01:22.758Z,100801.84
2023-05-10T01:04:06.570Z,100796.03
2023-05-10T01:06:50.113Z,100786.78
2023-05-10T01:09:35.390Z,100797.09
2023-05-10T01:12:19.128Z,100789.75
2023-05-10T01:15:03.398Z,100789.41
2023-05-10T01:17:49.369Z,100790.19
2023-05-10T01:20:44.547Z,100789.88
2023-05-10T01:24:00.708Z,100783.38
2023-05-10T01:27:08.904Z,100781.50
2023-05-10T01:30:28.322Z,100783.22
2023-05-10T01:33:26.820Z,100777.38
2023-05-10T01:36:29.834Z,100774.50
2023-05-10T01:39:46.275Z,100769.22
2023-05-10T01:42:42.690Z,100776.91
2023-05-10T01:45:48.446Z,100769.88
2023-05-10T01:48:34.696Z,100766.28
2023-05-10T01:51:26.348Z,100771.31
2023-05-10T01:54:15.175Z,100767.66
2023-05-10T01:57:08.544Z,100767.44
2023-05-10T01:59:54.790Z,100762.72
2023-05-10T02:02:45.417Z,100765.34
2023-05-10T02:05:32.160Z,100762.00
2023-05-10T02:08:19.985Z,100761.22
2023-05-10T02:11:05.841Z,100764.69
2023-05-10T02:13:51.560Z,100771.59
2023-05-10T02:16:38.140Z,100769.34
2023-05-10T02:19:24.616Z,100763.00
2023-05-10T02:22:10.861Z,100760.25
2023-05-10T02:24:59.123Z,100759.66
2023-05-10T02:27:46.001Z,100755.88
2023-05-10T02:30:33.607Z,100746.09
2023-05-10T02:33:19.163Z,100753.28
2023-05-10T02:36:05.014Z,100753.63
2023-05-10T02:38:52.871Z,100748.38
2023-05-10T02:41:38.326Z,100751.38
2023-05-10T02:44:24.873Z,100747.81
2023-05-10T02:47:08.695Z,100748.69
2023-05-10T02:49:52.416Z,100749.44
2023-05-10T02:52:49.265Z,100745.41
2023-05-10T02:55:40.122Z,100749.63
2023-05-10T02:58:26.498Z,100749.38
2023-05-10T03:01:10.430Z,100749.28
2023-05-10T03:03:53.970Z,100756.00
2023-05-10T03:06:37.808Z,100751.09
2023-05-10T03:09:22.681Z,100748.56
2023-05-10T03:12:40.168Z,100745.50
2023-05-10T03:15:48.484Z,100742.94
2023-05-10T03:19:02.786Z,100740.56
2023-05-10T03:21:53.648Z,100744.66
2023-05-10T03:24:40.451Z,100743.03
2023-05-10T03:27:27.995Z,100747.69
2023-05-10T03:30:14.846Z,100744.84
2023-05-10T03:32:58.933Z,100742.44
2023-05-10T03:35:42.660Z,100744.56
2023-05-10T03:38:27.328Z,100739.66
2023-05-10T03:41:12.653Z,100740.16
2023-05-10T03:43:56.240Z,100743.09
2023-05-10T03:46:39.745Z,100738.53
2023-05-10T03:49:23.507Z,100741.97
2023-05-10T03:52:07.681Z,100740.56
2023-05-10T03:54:52.077Z,100739.69
2023-05-10T03:57:35.717Z,100737.59
2023-05-10T04:00:19.726Z,100744.16
2023-05-10T04:03:07.325Z,100733.78
2023-05-10T04:06:01.572Z,100732.84
2023-05-10T04:08:45.203Z,100738.63
2023-05-10T04:11:29.085Z,100733.94
2023-05-10T04:14:12.707Z,100744.00
2023-05-10T04:16:56.573Z,100740.56
2023-05-10T04:19:40.143Z,100734.50
2023-05-10T04:22:23.680Z,100738.38
2023-05-10T04:25:08.194Z,100735.66
2023-05-10T04:27:51.724Z,100726.47
2023-05-10T04:30:38.916Z,100738.31
2023-05-10T04:33:23.851Z,100731.31
2023-05-10T04:36:07.634Z,100734.19
2023-05-10T04:38:51.208Z,100726.94
2023-05-10T04:41:34.732Z,100726.31
2023-05-10T04:44:18.752Z,100726.59
2023-05-10T04:47:03.361Z,100725.28
2023-05-10T04:49:46.924Z,100714.06
2023-05-10T04:52:30.452Z,100723.50
2023-05-10T04:55:14.818Z,100721.44
2023-05-10T04:58:00.164Z,100721.66
2023-05-10T05:00:43.746Z,100723.84
2023-05-10T05:03:27.394Z,100720.16
2023-05-10T05:06:11.123Z,100723.78
2023-05-10T05:08:54.610Z,100725.00
2023-05-10T05:11:38.261Z,100724.34
2023-05-10T05:14:26.239Z,100718.22
2023-05-10T05:17:09.861Z,100728.00
2023-05-10T05:19:53.434Z,100721.44
2023-05-10T05:22:40.199Z,100717.69
2023-05-10T05:25:23.972Z,100716.22
2023-05-10T05:28:07.480Z,100723.28
2023-05-10T05:30:51.033Z,100708.91
2023-05-10T05:33:35.532Z,100707.53
2023-05-10T05:36:19.122Z,100710.16
2023-05-10T05:39:02.654Z,100717.91
2023-05-10T05:41:47.251Z,100713.69
2023-05-10T05:44:30.863Z,100706.16
2023-05-10T05:47:14.444Z,100710.03
2023-05-10T05:49:57.946Z,100701.94
2023-05-10T05:52:41.533Z,100700.41
2023-05-10T05:55:25.545Z,100708.28
2023-05-10T05:58:09.098Z,100701.53
2023-05-10T06:00:53.767Z,100698.75
2023-05-10T06:03:37.504Z,100706.41
2023-05-10T06:06:21.086Z,100703.88
2023-05-10T06:09:04.576Z,100700.41
2023-05-10T06:11:48.140Z,100707.66
2023-05-10T06:14:31.735Z,100717.22
2023-05-10T06:17:15.229Z,100710.91
2023-05-10T06:19:58.755Z,100716.25
2023-05-10T06:22:43.089Z,100708.00
2023-05-10T06:25:26.681Z,100701.03
2023-05-10T06:28:10.550Z,100701.84
2023-05-10T06:30:54.104Z,100716.81
2023-05-10T06:33:37.625Z,100718.72
2023-05-10T06:36:21.196Z,100712.66
2023-05-10T06:39:04.729Z,100718.66
2023-05-10T06:41:48.252Z,100712.84
2023-05-10T06:44:31.802Z,100709.75
2023-05-10T06:47:15.323Z,100708.41
2023-05-10T06:49:58.968Z,100711.94
2023-05-10T06:52:44.054Z,100716.25
2023-05-10T06:55:27.936Z,100707.16
2023-05-10T06:58:11.606Z,100703.06
2023-05-10T07:00:55.159Z,100702.94
2023-05-10T07:03:38.721Z,100704.03
2023-05-10T07:06:32.801Z,100699.53
2023-05-10T07:09:17.137Z,100694.38
2023-05-10T07:12:00.812Z,100695.94
2023-05-10T07:14:44.390Z,100695.03
2023-05-10T07:17:28.238Z,100696.72
2023-05-10T07:20:12.571Z,100689.47
2023-05-10T07:22:56.152Z,100695.03
2023-05-10T07:25:39.731Z,100696.03
2023-05-10T07:28:23.290Z,100694.09
2023-05-10T07:31:06.887Z,100691.50
2023-05-10T07:33:50.518Z,100700.69
2023-05-10T07:36:34.107Z,100691.97
2023-05-10T07:39:26.593Z,100693.41
2023-05-10T07:42:11.420Z,100698.00
2023-05-10T07:44:54.932Z,100702.13
2023-05-10T07:47:38.569Z,100689.97
2023-05-10T07:50:22.571Z,100690.84
2023-05-10T07:53:06.113Z,100683.34
2023-05-10T07:55:55.813Z,100696.50
2023-05-10T07:58:39.331Z,100683.78
2023-05-10T08:01:23.917Z,100683.28
2023-05-10T08:04:07.538Z,100680.25
2023-05-10T08:06:51.570Z,100685.38
2023-05-10T08:09:35.125Z,100683.97
2023-05-10T08:12:18.649Z,100694.88
2023-05-10T08:15:02.216Z,100692.22
2023-05-10T08:17:45.832Z,100695.06
2023-05-10T08:20:29.394Z,100687.59
2023-05-10T08:23:15.948Z,100680.53
2023-05-10T08:26:00.294Z,100687.75
2023-05-10T08:28:43.813Z,100687.75
2023-05-10T08:31:27.508Z,100679.44
2023-05-10T08:34:11.622Z,100681.84
2023-05-10T08:36:55.250Z,100680.22
2023-05-10T08:39:38.861Z,100684.94
2023-05-10T08:42:27.033Z,100691.63
2023-05-10T08:45:12.694Z,100689.75
2023-05-10T08:47:56.823Z,100692.03
2023-05-10T08:50:43.184Z,100681.66
2023-05-10T08:53:29.911Z,100691.22
2023-05-10T08:56:13.757Z,100694.88
2023-05-10T08:58:58.919Z,100697.78
2023-05-10T09:01:46.639Z,100689.00
2023-05-10T09:04:31.003Z,100688.03
2023-05-10T09:07:14.746Z,100688.19
2023-05-10T09:09:59.448Z,100685.47
2023-05-10T09:12:45.411Z,100689.31
2023-05-10T09:15:29.100Z,100682.63
2023-05-10T09:18:13.444Z,100691.22
2023-05-10T09:20:57.037Z,100681.75
2023-05-10T09:23:48.961Z,100696.53
2023-05-10T09:26:32.800Z,100694.22
2023-05-10T09:29:17.743Z,100694.72
2023-05-10T09:32:01.921Z,100687.41
2023-05-10T09:34:46.053Z,100691.75
2023-05-10T09:37:32.895Z,100697.56
2023-05-10T09:40:22.048Z,100697.28
2023-05-10T09:43:12.031Z,100703.97
2023-05-10T09:45:56.027Z,100701.97
2023-05-10T09:48:48.216Z,100699.16
2023-05-10T09:51:31.744Z,100688.16
2023-05-10T09:54:17.760Z,100703.00
2023-05-10T09:57:02.068Z,100695.22
2023-05-10T09:59:45.667Z,100690.03
2023-05-10T10:02:33.014Z,100691.22
2023-05-10T10:05:16.848Z,100694.47
2023-05-10T10:08:04.304Z,100692.56
2023-05-10T10:10:51.402Z,100684.75
2023-05-10T10:13:35.608Z,100688.84
2023-05-10T10:16:19.653Z,100688.13
2023-05-10T10:19:03.651Z,100687.84
2023-05-10T10:21:53.144Z,100688.56
2023-05-10T10:24:44.472Z,100690.84
2023-05-10T10:27:52.810Z,100682.97
2023-05-10T10:30:48.277Z,100675.25
2023-05-10T10:33:49.042Z,100678.53
2023-05-10T10:36:34.983Z,100677.53
2023-05-10T10:39:21.703Z,100669.06
2023-05-10T10:42:06.069Z,100680.16
2023-05-10T10:44:49.590Z,100672.38
2023-05-10T10:47:34.517Z,100685.47
2023-05-10T10:50:18.329Z,100675.50
2023-05-10T10:53:14.645Z,100673.91
2023-05-10T10:56:16.453Z,100678.97
2023-05-10T10:59:01.782Z,100674.06
2023-05-10T11:01:54.070Z,100681.56
2023-05-10T11:04:47.753Z,100679.22
2023-05-10T11:07:32.624Z,100673.19
2023-05-10T11:10:24.694Z,100672.84
2023-05-10T11:13:10.472Z,100683.91
2023-05-10T11:15:54.977Z,100669.81
2023-05-10T11:18:39.063Z,100667.13
2023-05-10T11:21:22.904Z,100665.59
2023-05-10T11:24:23.534Z,100671.25
2023-05-10T11:27:07.890Z,100669.72
2023-05-10T11:29:57.838Z,100668.75
2023-05-10T11:32:42.235Z,100672.00
2023-05-10T11:35:29.483Z,100664.56
2023-05-10T11:38:15.175Z,100665.41
2023-05-10T11:40:58.785Z,100661.44
2023-05-10T11:43:43.548Z,100672.31
2023-05-10T11:46:29.973Z,100670.22
2023-05-10T11:49:14.543Z,100672.59
2023-05-10T11:52:12.201Z,100663.88
2023-05-10T11:54:56.213Z,100663.94
2023-05-10T11:57:39.855Z,100657.84
2023-05-10T12:00:24.425Z,100660.34
2023-05-10T12:03:09.289Z,100667.34
2023-05-10T12:05:53.228Z,100678.47
2023-05-10T12:08:36.840Z,100675.94
2023-05-10T12:11:22.986Z,100675.13
2023-05-10T12:14:06.987Z,100669.22
2023-05-10T12:16:51.397Z,100666.41
2023-05-10T12:19:39.796Z,100660.34
2023-05-10T12:22:23.407Z,100672.91
2023-05-10T12:25:09.488Z,100671.41
2023-05-10T12:27:59.017Z,100689.19
2023-05-10T12:30:42.590Z,100675.97
2023-05-10T12:33:26.290Z,100683.41
2023-05-10T12:36:12.705Z,100669.66
2023-05-10T12:39:04.392Z,100675.81
2023-05-10T12:41:48.039Z,100679.53
2023-05-10T12:44:31.536Z,100673.25
2023-05-10T12:47:15.588Z,100689.09
2023-05-10T12:49:59.512Z,100684.47
2023-05-10T12:52:43.037Z,100687.69
2023-05-10T12:55:26.613Z,100686.13
2023-05-10T12:58:11.214Z,100686.94
2023-05-10T13:00:55.139Z,100688.91
2023-05-10T13:03:38.672Z,100676.47
2023-05-10T13:06:22.211Z,100668.38
2023-05-10T13:09:05.807Z,100675.97
2023-05-10T13:11:50.405Z,100681.88
2023-05-10T13:14:33.965Z,100678.63
2023-05-10T13:17:17.554Z,100670.22
2023-05-10T13:20:01.174Z,100673.16
2023-05-10T13:22:46.153Z,100674.69
2023-05-10T13:25:29.737Z,100680.13
2023-05-10T13:28:13.287Z,100669.00
2023-05-10T13:30:56.899Z,100671.91
2023-05-10T13:33:40.833Z,100665.81
2023-05-10T13:36:24.382Z,100663.16
2023-05-10T13:39:08.284Z,100665.97
2023-05-10T13:41:52.977Z,100663.06
2023-05-10T13:44:37.496Z,100660.47
2023-05-10T13:47:22.776Z,100664.41
2023-05-10T13:50:07.311Z,100660.41
2023-05-10T13:52:50.941Z,100660.94
2023-05-10T13:55:34.857Z,100659.22
2023-05-10T13:58:18.375Z,100663.75
2023-05-10T14:01:02.018Z,100664.16
2023-05-10T14:03:45.610Z,100666.88
2023-05-10T14:06:29.139Z,100666.84
2023-05-10T14:09:12.997Z,100667.50
2023-05-10T14:11:56.973Z,100655.81
2023-05-10T14:14:40.503Z,100645.56
2023-05-10T14:17:24.235Z,100661.09
2023-05-10T14:20:09.479Z,100659.91
2023-05-10T14:22:52.981Z,100654.75
2023-05-10T14:25:37.299Z,100652.44
2023-05-10T14:28:21.991Z,100653.94
2023-05-10T14:31:06.639Z,100649.50
2023-05-10T14:33:50.186Z,100655.88
2023-05-10T14:36:33.804Z,100656.63
2023-05-10T14:39:17.653Z,100654.50
2023-05-10T14:42:01.381Z,100654.88
2023-05-10T14:44:45.321Z,100652.28
2023-05-10T14:47:29.760Z,100651.94
2023-05-10T14:50:18.921Z,100652.19
2023-05-10T14:53:15.625Z,100653.53
2023-05-10T14:55:59.208Z,100653.44
2023-05-10T14:58:42.731Z,100654.78
2023-05-10T15:01:26.372Z,100646.09
2023-05-10T15:04:10.544Z,100647.13
2023-05-10T15:07:00.264Z,100654.06
2023-05-10T15:09:43.938Z,100653.19
2023-05-10T15:12:27.752Z,100662.56
2023-05-10T15:15:11.422Z,100664.00
2023-05-10T15:17:55.047Z,100653.81
2023-05-10T15:20:38.602Z,100657.88
2023-05-10T15:23:22.201Z,100659.22
2023-05-10T15:26:06.057Z,100659.34
2023-05-10T15:28:49.537Z,100657.97
2023-05-10T15:31:36.072Z,100665.63
2023-05-10T15:34:20.272Z,100660.22
2023-05-10T15:37:03.950Z,100664.16
2023-05-10T15:39:47.565Z,100659.19
2023-05-10T15:42:32.898Z,100660.56
2023-05-10T15:45:17.000Z,100658.53
2023-05-10T15:48:00.781Z,100665.41
2023-05-10T15:50:44.326Z,100668.38
2023-05-10T15:53:27.971Z,100655.66
2023-05-10T15:56:12.428Z,100666.88
2023-05-10T15:58:56.097Z,100666.47
2023-05-10T16:01:39.745Z,100666.66
2023-05-10T16:04:23.840Z,100671.75
2023-05-10T16:07:07.381Z,100667.88
2023-05-10T16:09:50.912Z,100673.72
2023-05-10T16:12:34.458Z,100675.06
2023-05-10T16:15:18.201Z,100669.94
2023-05-10T16:18:02.155Z,100676.91
2023-05-10T16:20:46.876Z,100676.72
2023-05-10T16:23:30.843Z,100677.31
2023-05-10T16:26:14.391Z,100685.06
2023-05-10T16:28:57.979Z,100683.63
2023-05-10T16:31:41.507Z,100684.75
2023-05-10T16:34:27.890Z,100695.00
2023-05-10T16:37:11.514Z,100713.50
2023-05-10T16:39:55.006Z,100713.47
2023-05-10T16:42:38.576Z,100724.03
2023-05-10T16:45:22.210Z,100724.38
2023-05-10T16:48:06.585Z,100723.56
2023-05-10T16:50:50.303Z,100721.72
2023-05-10T16:53:34.497Z,100722.41
2023-05-10T16:56:18.564Z,100732.16
2023-05-10T16:59:02.098Z,100732.59
2023-05-10T17:01:47.183Z,100730.16
2023-05-10T17:04:30.830Z,100734.59
2023-05-10T17:07:14.789Z,100746.19
2023-05-10T17:09:59.537Z,100733.91
2023-05-10T17:12:43.554Z,100738.41
2023-05-10T17:15:27.272Z,100742.97
2023-05-10T17:18:10.958Z,100747.41
2023-05-10T17:20:54.570Z,100749.16
2023-05-10T17:23:38.132Z,100755.28
2023-05-10T17:26:22.480Z,100758.84
2023-05-10T17:29:06.262Z,100759.66
2023-05-10T17:31:49.900Z,100762.66
2023-05-10T17:34:33.638Z,100762.63
2023-05-10T17:37:17.301Z,100763.31
2023-05-10T17:40:01.243Z,100764.09
2023-05-10T17:42:45.230Z,100776.63
2023-05-10T17:45:28.872Z,100773.66
2023-05-10T17:48:12.802Z,100774.34
2023-05-10T17:50:56.542Z,100781.25
2023-05-10T17:53:41.097Z,100783.53
2023-05-10T17:56:24.655Z,100787.22
2023-05-10T17:59:08.138Z,100787.50
2023-05-10T18:01:51.715Z,100792.94
2023-05-10T18:04:35.460Z,100804.44
2023-05-10T18:07:19.105Z,100804.03
2023-05-10T18:10:02.665Z,100794.38
2023-05-10T18:12:46.278Z,100808.88
2023-05-10T18:15:29.885Z,100799.25
2023-05-10T18:18:13.649Z,100807.09
2023-05-10T18:20:58.363Z,100812.03
2023-05-10T18:23:41.938Z,100818.06
2023-05-10T18:26:26.206Z,100822.06
2023-05-10T18:29:09.907Z,100823.22
2023-05-10T18:31:53.423Z,100818.84
2023-05-10T18:34:37.167Z,100822.56
2023-05-10T18:37:20.773Z,100826.91
2023-05-10T18:40:06.476Z,100829.22
2023-05-10T18:42:50.724Z,100836.63
2023-05-10T18:45:34.601Z,100836.56
2023-05-10T18:48:18.381Z,100844.91
2023-05-10T18:51:01.884Z,100840.56
2023-05-10T18:53:45.518Z,100848.13
2023-05-10T18:56:29.049Z,100849.66
2023-05-10T18:59:13.285Z,100847.69
2023-05-10T19:01:57.499Z,100858.81
2023-05-10T19:04:41.418Z,100856.06
2023-05-10T19:07:25.033Z,100863.97
2023-05-10T19:10:09.191Z,100862.78
2023-05-10T19:12:52.738Z,100867.94
2023-05-10T19:15:36.339Z,100875.47
2023-05-10T19:18:20.923Z,100875.09
2023-05-10T19:21:07.512Z,100873.88
2023-05-10T19:23:52.261Z,100884.78
2023-05-10T19:26:36.290Z,100883.31
2023-05-10T19:29:19.994Z,100880.09
2023-05-10T19:32:03.909Z,100888.72
2023-05-10T19:34:47.470Z,100891.50
2023-05-10T19:37:30.979Z,100889.47
2023-05-10T19:40:18.624Z,100905.25
2023-05-10T19:43:03.233Z,100894.16
2023-05-10T19:45:46.885Z,100902.13
2023-05-10T19:48:31.397Z,100901.63
2023-05-10T19:51:15.231Z,100899.56
2023-05-10T19:53:58.963Z,100904.31
2023-05-10T19:56:42.525Z,100902.06
2023-05-10T19:59:26.176Z,100914.06
2023-05-10T20:02:09.780Z,100900.31
2023-05-10T20:04:53.484Z,100906.19
2023-05-10T20:07:37.371Z,100914.53
2023-05-10T20:10:23.039Z,100912.28
2023-05-10T20:13:07.870Z,100913.59
2023-05-10T20:15:56.477Z,100913.00
2023-05-10T20:18:40.082Z,100913.72
2023-05-10T20:21:24.134Z,100916.72
2023-05-10T20:24:09.040Z,100920.91
2023-05-10T20:26:52.579Z,100919.53
2023-05-10T20:29:36.086Z,100922.28
2023-05-10T20:32:19.588Z,100918.84
2023-05-10T20:35:03.535Z,100919.69
2023-05-10T20:37:48.490Z,100914.34
2023-05-10T20:40:32.149Z,100922.97
2023-05-10T20:43:15.743Z,100921.97
2023-05-10T20:46:05.427Z,100927.06
2023-05-10T20:48:49.186Z,100934.28
2023-05-10T20:51:33.354Z,100928.66
2023-05-10T20:54:16.967Z,100929.19
2023-05-10T20:57:02.153Z,100931.25
2023-05-10T20:59:45.726Z,100929.81
2023-05-10T21:02:29.353Z,100930.91
2023-05-10T21:05:13.192Z,100932.00
2023-05-10T21:07:56.858Z,100935.31
2023-05-10T21:10:40.460Z,100936.50
2023-05-10T21:13:24.011Z,100943.31
2023-05-10T21:16:07.531Z,100937.28
2023-05-10T21:18:51.250Z,100944.41
2023-05-10T21:21:35.208Z,100938.38
2023-05-10T21:24:18.696Z,100943.56
2023-05-10T21:27:02.971Z,100940.94
2023-05-10T21:29:46.542Z,100946.31
2023-05-10T21:32:30.127Z,100943.28
2023-05-10T21:35:13.724Z,100936.25
2023-05-10T21:37:57.545Z,100946.47
2023-05-10T21:40:41.594Z,100945.91
2023-05-10T21:43:25.219Z,100953.38
2023-05-10T21:46:09.434Z,100949.59
2023-05-10T21:48:53.050Z,100958.78
2023-05-10T21:51:37.017Z,100952.91
2023-05-10T21:54:20.590Z,100953.91
2023-05-10T21:57:08.977Z,100947.69
2023-05-10T21:59:54.498Z,100960.22
2023-05-10T22:02:38.072Z,100956.78
2023-05-10T22:05:22.021Z,100959.13
2023-05-10T22:08:07.175Z,100963.59
2023-05-10T22:10:52.178Z,100956.88
2023-05-10T22:13:35.984Z,100955.31
2023-05-10T22:16:19.643Z,100962.78
2023-05-10T22:19:03.185Z,100966.03
2023-05-10T22:21:46.863Z,100966.59
2023-05-10T22:24:31.417Z,100962.84
2023-05-10T22:27:15.241Z,100966.34
2023-05-10T22:29:58.758Z,100961.84
2023-05-10T22:32:42.293Z,100959.75
2023-05-10T22:35:25.978Z,100964.09
2023-05-10T22:38:09.512Z,100968.66
2023-05-10T22:40:53.027Z,100967.50
2023-05-10T22:43:36.531Z,100971.94
2023-05-10T22:46:20.122Z,100968.81
2023-05-10T22:49:03.984Z,100968.97
2023-05-10T22:51:47.500Z,100971.78
2023-05-10T22:54:31.018Z,100969.53
2023-05-10T22:57:15.167Z,100969.06
2023-05-10T22:59:58.788Z,100972.41
2023-05-10T23:02:43.287Z,100967.25
2023-05-10T23:05:27.004Z,100972.16
2023-05-10T23:08:11.552Z,100970.72
2023-05-10T23:10:55.035Z,100976.16
2023-05-10T23:13:38.554Z,100968.09
2023-05-10T23:16:22.188Z,100968.47
2023-05-10T23:19:05.751Z,100976.66
2023-05-10T23:21:49.271Z,100977.56
2023-05-10T23:24:32.892Z,100971.78
2023-05-10T23:27:16.389Z,100976.13
2023-05-10T23:30:00.065Z,100973.88
2023-05-10T23:32:43.746Z,100975.69
2023-05-10T23:35:27.513Z,100978.97
2023-05-10T23:38:11.230Z,100980.31
2023-05-10T23:40:55.126Z,100978.81
2023-05-10T23:43:38.633Z,100967.72
2023-05-10T23:46:22.293Z,100969.59
2023-05-10T23:49:05.932Z,100970.47
2023-05-10T23:51:49.444Z,100965.16
2023-05-10T23:54:33.053Z,100967.91
2023-05-10T23:57:16.681Z,100969.41
